createdAt,value
2019-03-10T00:00:47.441Z,12.50
2019-03-10T00:01:47.438Z,10.40
2019-03-10T00:02:47.415Z,12.30
2019-03-10T00:03:47.466Z,12.20
2019-03-10T00:04:47.403Z,15.00
2019-03-10T00:05:47.389Z,12.60
2019-03-10T00:06:47.419Z,11.60
2019-03-10T00:07:47.373Z,13.20
2019-03-10T00:08:47.404Z,10.60
2019-03-10T00:09:47.344Z,11.90
2019-03-10T00:10:47.344Z,12.60
2019-03-10T00:11:47.317Z,13.50
2019-03-10T00:12:47.333Z,11.20
2019-03-10T00:13:47.302Z,15.00
2019-03-10T00:14:47.344Z,13.50
2019-03-10T00:15:47.274Z,13.60
2019-03-10T00:16:47.277Z,13.20
2019-03-10T00:17:47.255Z,12.60
2019-03-10T00:18:47.279Z,13.30
2019-03-10T00:19:47.298Z,10.30
2019-03-10T00:20:47.232Z,12.00
2019-03-10T00:21:47.213Z,12.40
2019-03-10T00:22:47.214Z,13.80
2019-03-10T00:23:47.190Z,13.00
2019-03-10T00:24:47.257Z,14.30
2019-03-10T00:25:47.166Z,10.90
2019-03-10T00:26:47.170Z,15.30
2019-03-10T00:27:47.170Z,13.70
2019-03-10T00:28:47.139Z,11.90
2019-03-10T00:29:47.247Z,16.90
2019-03-10T00:30:47.166Z,11.60
2019-03-10T00:31:47.099Z,14.00
2019-03-10T00:32:47.090Z,10.80
2019-03-10T00:33:47.087Z,16.40
2019-03-10T00:34:47.074Z,15.80
2019-03-10T00:35:47.132Z,14.20
2019-03-10T00:36:47.068Z,14.40
2019-03-10T00:37:47.039Z,15.30
2019-03-10T00:38:47.024Z,14.80
2019-03-10T00:39:47.013Z,14.80
2019-03-10T00:40:47.052Z,11.10
2019-03-10T00:41:47.021Z,14.50
2019-03-10T00:42:46.980Z,14.10
2019-03-10T00:43:46.969Z,14.30
2019-03-10T00:44:46.963Z,12.10
2019-03-10T00:45:46.984Z,15.30
2019-03-10T00:46:46.935Z,13.20
2019-03-10T00:47:46.989Z,15.40
2019-03-10T00:48:46.921Z,13.80
2019-03-10T00:49:46.918Z,17.60
2019-03-10T00:50:48.739Z,15.20
2019-03-10T00:51:46.947Z,13.50
2019-03-10T00:52:46.867Z,14.80
2019-03-10T00:53:46.910Z,16.10
2019-03-10T00:54:46.867Z,14.80
2019-03-10T00:55:46.852Z,16.00
2019-03-10T00:56:46.868Z,15.80
2019-03-10T00:57:46.816Z,14.40
2019-03-10T00:58:46.810Z,14.80
2019-03-10T00:59:46.831Z,10.90
2019-03-10T01:00:46.790Z,17.20
2019-03-10T01:01:46.828Z,14.60
2019-03-10T01:02:46.772Z,14.40
2019-03-10T01:03:46.763Z,13.70
2019-03-10T01:04:46.741Z,16.40
2019-03-10T01:05:46.768Z,14.50
2019-03-10T01:06:46.788Z,11.40
2019-03-10T01:07:46.714Z,14.50
2019-03-10T01:08:46.700Z,13.50
2019-03-10T01:09:46.681Z,14.50
2019-03-10T01:10:46.739Z,13.70
2019-03-10T01:11:46.705Z,13.10
2019-03-10T01:12:46.703Z,12.30
2019-03-10T01:13:46.649Z,18.00
2019-03-10T01:14:46.632Z,16.20
2019-03-10T01:15:46.625Z,13.70
2019-03-10T01:16:46.651Z,15.20
2019-03-10T01:17:46.597Z,13.30
2019-03-10T01:18:46.614Z,17.40
2019-03-10T01:19:46.571Z,16.90
2019-03-10T01:20:46.564Z,14.60
2019-03-10T01:21:46.587Z,15.70
2019-03-10T01:22:46.550Z,17.30
2019-03-10T01:23:46.548Z,13.60
2019-03-10T01:24:46.564Z,15.50
2019-03-10T01:25:46.513Z,15.00
2019-03-10T01:26:46.535Z,15.30
2019-03-10T01:27:46.491Z,14.30
2019-03-10T01:28:46.482Z,17.90
2019-03-10T01:29:46.479Z,17.00
2019-03-10T01:30:46.502Z,17.20
2019-03-10T01:31:46.503Z,13.60
2019-03-10T01:32:46.433Z,14.50
2019-03-10T01:33:46.424Z,13.30
2019-03-10T01:34:46.414Z,14.80
2019-03-10T01:35:46.401Z,15.30
2019-03-10T01:36:46.523Z,14.50
2019-03-10T01:37:46.383Z,16.80
2019-03-10T01:38:46.370Z,15.40
2019-03-10T01:39:46.361Z,13.00
2019-03-10T01:40:46.364Z,14.60
2019-03-10T01:41:46.338Z,13.40
2019-03-10T01:42:48.254Z,15.80
2019-03-10T01:43:46.311Z,14.80
2019-03-10T01:44:46.312Z,17.30
2019-03-10T01:45:46.294Z,15.40
2019-03-10T01:46:46.284Z,16.00
2019-03-10T01:47:46.318Z,15.90
2019-03-10T01:48:46.264Z,12.90
2019-03-10T01:49:46.277Z,17.50
2019-03-10T01:50:46.246Z,13.00
2019-03-10T01:51:46.224Z,14.50
2019-03-10T01:52:46.261Z,14.60
2019-03-10T01:53:46.203Z,15.80
2019-03-10T01:54:46.262Z,14.80
2019-03-10T01:55:46.187Z,15.40
2019-03-10T01:56:46.175Z,19.00
2019-03-10T01:57:46.243Z,17.90
2019-03-10T01:58:46.147Z,17.10
2019-03-10T01:59:46.139Z,13.50
2019-03-10T02:00:46.168Z,13.50
2019-03-10T02:01:46.123Z,14.80
2019-03-10T02:02:46.157Z,15.90
2019-03-10T02:03:46.100Z,18.00
2019-03-10T02:04:46.101Z,17.70
2019-03-10T02:05:46.111Z,16.30
2019-03-10T02:06:46.072Z,16.80
2019-03-10T02:07:46.120Z,16.40
2019-03-10T02:08:46.039Z,18.10
2019-03-10T02:09:46.039Z,15.80
2019-03-10T02:10:46.021Z,16.90
2019-03-10T02:11:46.061Z,14.60
2019-03-10T02:12:46.012Z,14.90
2019-03-10T02:13:46.056Z,14.50
2019-03-10T02:14:45.977Z,14.50
2019-03-10T02:15:45.972Z,16.10
2019-03-10T02:16:45.954Z,14.00
2019-03-10T02:17:45.952Z,14.60
2019-03-10T02:18:45.973Z,17.20
2019-03-10T02:19:45.966Z,15.40
2019-03-10T02:20:45.915Z,13.60
2019-03-10T02:21:45.901Z,16.40
2019-03-10T02:22:45.896Z,15.20
2019-03-10T02:23:45.888Z,15.30
2019-03-10T02:24:45.975Z,17.80
2019-03-10T02:25:45.872Z,16.10
2019-03-10T02:26:45.844Z,16.20
2019-03-10T02:27:45.839Z,18.40
2019-03-10T02:28:45.824Z,17.70
2019-03-10T02:29:45.847Z,15.30
2019-03-10T02:30:45.838Z,16.40
2019-03-10T02:31:45.799Z,18.00
2019-03-10T02:32:45.845Z,16.30
2019-03-10T02:33:45.768Z,17.60
2019-03-10T02:34:45.799Z,18.60
2019-03-10T02:35:45.762Z,16.40
2019-03-10T02:36:45.751Z,17.10
2019-03-10T02:37:45.771Z,19.50
2019-03-10T02:38:45.715Z,16.60
2019-03-10T02:39:45.755Z,17.60
2019-03-10T02:40:45.703Z,19.80
2019-03-10T02:41:45.708Z,18.00
2019-03-10T02:42:45.673Z,19.10
2019-03-10T02:43:45.699Z,15.80
2019-03-10T02:44:45.726Z,19.10
2019-03-10T02:45:45.650Z,16.40
2019-03-10T02:46:45.642Z,17.70
2019-03-10T02:47:45.614Z,18.60
2019-03-10T02:48:45.607Z,17.30
2019-03-10T02:49:46.264Z,19.00
2019-03-10T02:50:45.587Z,18.40
2019-03-10T02:51:45.577Z,18.80
2019-03-10T02:52:45.576Z,20.20
2019-03-10T02:53:45.560Z,20.80
2019-03-10T02:54:45.588Z,20.70
2019-03-10T02:55:45.557Z,15.80
2019-03-10T02:56:45.521Z,18.20
2019-03-10T02:57:45.514Z,17.50
2019-03-10T02:58:45.508Z,20.60
2019-03-10T02:59:45.527Z,19.60
2019-03-10T03:00:45.479Z,19.50
2019-03-10T03:01:45.537Z,21.50
2019-03-10T03:02:45.453Z,21.90
2019-03-10T03:03:45.446Z,15.90
2019-03-10T03:04:45.495Z,21.00
2019-03-10T03:05:45.432Z,18.90
2019-03-10T03:06:45.414Z,18.80
2019-03-10T03:07:45.405Z,17.70
2019-03-10T03:08:45.416Z,19.40
2019-03-10T03:09:45.435Z,19.20
2019-03-10T03:10:45.367Z,19.30
2019-03-10T03:11:45.367Z,21.50
2019-03-10T03:12:45.344Z,17.80
2019-03-10T03:13:45.344Z,19.10
2019-03-10T03:14:45.361Z,19.80
2019-03-10T03:15:45.401Z,19.70
2019-03-10T03:16:45.304Z,16.90
2019-03-10T03:17:45.294Z,18.20
2019-03-10T03:18:45.274Z,20.40
2019-03-10T03:19:45.272Z,18.20
2019-03-10T03:20:45.284Z,21.80
2019-03-10T03:21:45.288Z,18.90
2019-03-10T03:22:45.284Z,18.50
2019-03-10T03:23:45.222Z,19.00
2019-03-10T03:24:45.224Z,17.60
2019-03-10T03:25:45.243Z,19.00
2019-03-10T03:26:45.779Z,18.70
2019-03-10T03:27:45.185Z,20.50
2019-03-10T03:28:45.200Z,16.70
2019-03-10T03:29:45.159Z,20.40
2019-03-10T03:30:45.155Z,18.30
2019-03-10T03:31:45.190Z,18.30
2019-03-10T03:32:45.158Z,20.00
2019-03-10T03:33:45.166Z,21.50
2019-03-10T03:34:45.124Z,19.50
2019-03-10T03:35:45.114Z,16.30
2019-03-10T03:36:45.087Z,19.10
2019-03-10T03:37:45.146Z,17.60
2019-03-10T03:38:45.061Z,17.30
2019-03-10T03:39:45.056Z,18.70
2019-03-10T03:40:45.076Z,18.10
2019-03-10T03:41:45.035Z,19.00
2019-03-10T03:42:45.060Z,18.50
2019-03-10T03:43:45.010Z,18.50
2019-03-10T03:44:44.999Z,20.10
2019-03-10T03:45:44.988Z,18.60
2019-03-10T03:46:45.035Z,17.80
2019-03-10T03:47:45.011Z,14.90
2019-03-10T03:48:44.952Z,17.00
2019-03-10T03:49:44.950Z,16.30
2019-03-10T03:50:44.929Z,14.00
2019-03-10T03:51:44.923Z,16.40
2019-03-10T03:52:44.979Z,15.90
2019-03-10T03:53:45.797Z,15.10
2019-03-10T03:54:44.882Z,16.00
2019-03-10T03:55:44.892Z,17.60
2019-03-10T03:56:44.870Z,20.90
2019-03-10T03:57:44.866Z,20.20
2019-03-10T03:58:44.925Z,16.20
2019-03-10T03:59:44.837Z,16.80
2019-03-10T04:00:44.819Z,18.60
2019-03-10T04:01:44.802Z,16.60
2019-03-10T04:02:44.812Z,16.20
2019-03-10T04:03:44.824Z,15.60
2019-03-10T04:04:44.841Z,15.90
2019-03-10T04:05:44.764Z,17.50
2019-03-10T04:06:44.770Z,16.00
2019-03-10T04:07:44.745Z,20.10
2019-03-10T04:08:44.740Z,17.20
2019-03-10T04:09:44.807Z,18.90
2019-03-10T04:10:44.712Z,17.60
2019-03-10T04:11:44.755Z,19.40
2019-03-10T04:12:44.700Z,20.50
2019-03-10T04:13:44.672Z,17.30
2019-03-10T04:14:44.709Z,19.50
2019-03-10T04:15:44.649Z,18.10
2019-03-10T04:16:44.645Z,16.90
2019-03-10T04:17:44.642Z,21.50
2019-03-10T04:18:44.714Z,20.50
2019-03-10T04:19:45.327Z,19.00
2019-03-10T04:20:44.628Z,20.90
2019-03-10T04:21:44.581Z,19.20
2019-03-10T04:22:44.585Z,17.40
2019-03-10T04:23:44.564Z,18.20
2019-03-10T04:24:48.802Z,18.60
2019-03-10T04:25:44.540Z,16.80
2019-03-10T04:26:44.583Z,18.10
2019-03-10T04:27:44.517Z,18.90
2019-03-10T04:28:44.516Z,16.80
2019-03-10T04:29:53.294Z,16.40
2019-03-10T04:30:44.519Z,15.80
2019-03-10T04:31:44.487Z,15.70
2019-03-10T04:32:44.536Z,14.50
2019-03-10T04:33:44.486Z,14.40
2019-03-10T04:34:44.454Z,17.20
2019-03-10T05:51:50.626Z,17.70
2019-03-10T05:52:50.181Z,22.60
2019-03-10T05:53:49.276Z,22.90
2019-03-10T05:54:49.202Z,26.50
2019-03-10T05:55:49.189Z,29.90
2019-03-10T05:56:49.205Z,24.50
2019-03-10T05:57:49.204Z,24.40
2019-03-10T05:58:49.170Z,22.40
2019-03-10T05:59:49.149Z,20.90
2019-03-10T06:00:49.137Z,23.10
2019-03-10T06:01:49.157Z,27.60
2019-03-10T06:02:49.099Z,22.40
2019-03-10T06:03:49.105Z,24.40
2019-03-10T06:04:49.083Z,22.50
2019-03-10T06:05:49.112Z,28.00
2019-03-10T06:06:50.819Z,26.30
2019-03-10T06:07:49.088Z,25.10
2019-03-10T06:08:49.039Z,23.00
2019-03-10T06:09:49.087Z,28.20
2019-03-10T06:10:49.017Z,25.30
2019-03-10T06:11:49.011Z,27.30
2019-03-10T06:12:49.114Z,26.00
2019-03-10T06:13:48.978Z,22.70
2019-03-10T06:14:49.051Z,25.30
2019-03-10T06:15:49.021Z,29.60
2019-03-10T06:16:49.010Z,26.90
2019-03-10T06:17:53.873Z,25.20
2019-03-10T06:18:48.992Z,28.50
2019-03-10T06:19:48.928Z,28.30
2019-03-10T06:20:48.935Z,30.90
2019-03-10T06:21:48.932Z,31.40
2019-03-10T06:22:50.849Z,28.00
2019-03-10T06:23:48.913Z,31.30
2019-03-10T06:24:49.065Z,28.90
2019-03-10T06:25:48.864Z,32.50
2019-03-10T06:26:48.839Z,30.40
2019-03-10T06:27:48.835Z,31.90
2019-03-10T06:28:50.994Z,28.30
2019-03-10T06:29:48.838Z,27.80
2019-03-10T06:30:48.815Z,27.10
2019-03-10T06:31:48.787Z,27.60
2019-03-10T06:32:48.814Z,26.90
2019-03-10T06:33:49.329Z,33.70
2019-03-10T06:34:48.814Z,33.70
2019-03-10T06:35:48.820Z,27.90
2019-03-10T06:36:48.747Z,31.50
2019-03-10T06:37:48.753Z,32.40
2019-03-10T06:38:55.221Z,32.50
2019-03-10T06:39:48.738Z,30.40
2019-03-10T06:40:48.694Z,31.20
2019-03-10T06:41:48.689Z,30.80
2019-03-10T06:42:48.680Z,31.60
2019-03-10T06:43:52.153Z,34.70
2019-03-10T06:44:48.680Z,41.10
2019-03-10T06:45:48.651Z,36.90
2019-03-10T06:46:48.642Z,36.60
2019-03-10T06:47:48.661Z,33.30
2019-03-10T06:48:48.611Z,35.10
2019-03-10T06:49:57.842Z,33.70
2019-03-10T06:50:48.590Z,41.10
2019-03-10T06:51:48.563Z,38.90
2019-03-10T06:52:48.595Z,34.70
2019-03-10T06:53:48.557Z,38.60
2019-03-10T06:54:49.388Z,36.90
2019-03-10T06:55:48.528Z,38.90
2019-03-10T06:56:48.563Z,35.20
2019-03-10T06:57:48.515Z,37.20
2019-03-10T06:58:48.532Z,39.60
2019-03-10T06:59:50.028Z,38.30
2019-03-10T07:00:48.496Z,39.80
2019-03-10T07:01:48.462Z,33.60
2019-03-10T07:02:48.505Z,43.00
2019-03-10T07:03:48.467Z,36.60
2019-03-10T07:04:48.472Z,38.80
2019-03-10T07:05:50.331Z,39.70
2019-03-10T07:06:48.433Z,38.30
2019-03-10T07:07:48.497Z,34.80
2019-03-10T07:08:48.505Z,38.30
2019-03-10T07:09:48.487Z,36.60
2019-03-10T07:10:48.521Z,40.30
2019-03-10T07:11:48.448Z,42.00
2019-03-10T07:12:48.399Z,39.50
2019-03-10T07:13:48.387Z,40.80
2019-03-10T07:14:48.483Z,37.60
2019-03-10T07:15:48.438Z,34.10
2019-03-10T07:16:48.324Z,38.70
2019-03-10T07:17:48.390Z,40.40
2019-03-10T07:18:48.396Z,41.80
2019-03-10T07:19:48.507Z,37.50
2019-03-10T07:20:48.338Z,37.80
2019-03-10T07:21:49.851Z,40.10
2019-03-10T07:22:48.273Z,41.80
2019-03-10T07:23:48.239Z,43.30
2019-03-10T07:24:48.310Z,39.00
2019-03-10T07:25:48.239Z,35.90
2019-03-10T07:26:48.848Z,43.50
2019-03-10T07:27:48.208Z,42.00
2019-03-10T07:28:48.228Z,41.00
2019-03-10T07:29:48.157Z,39.00
2019-03-10T07:30:48.154Z,37.40
2019-03-10T07:32:12.064Z,42.50
2019-03-10T07:32:48.152Z,38.70
2019-03-10T07:33:48.223Z,40.80
2019-03-10T07:34:48.177Z,39.10
2019-03-10T07:35:48.142Z,46.50
2019-03-10T07:36:58.802Z,41.90
2019-03-10T07:37:48.238Z,46.30
2019-03-10T07:38:48.328Z,34.90
2019-03-10T07:39:48.143Z,34.20
2019-03-10T07:40:49.811Z,35.30
2019-03-10T07:41:48.100Z,39.10
2019-03-10T07:42:48.023Z,40.80
2019-03-10T07:43:48.162Z,38.00
2019-03-10T07:44:48.006Z,37.80
2019-03-10T07:45:47.984Z,38.30
2019-03-10T07:46:48.059Z,43.20
2019-03-10T07:47:47.963Z,42.70
2019-03-10T07:48:47.966Z,37.80
2019-03-10T07:49:47.949Z,41.00
2019-03-10T07:50:47.932Z,36.40
2019-03-10T07:51:47.993Z,39.30
2019-03-10T07:52:47.966Z,36.80
2019-03-10T07:53:47.901Z,37.50
2019-03-10T07:54:47.940Z,37.30
2019-03-10T07:55:47.898Z,33.70
2019-03-10T07:56:47.880Z,34.70
2019-03-10T07:57:47.985Z,39.90
2019-03-10T07:58:47.935Z,34.20
2019-03-10T07:59:47.936Z,32.50
2019-03-10T08:00:47.900Z,31.50
2019-03-10T08:01:47.895Z,36.30
2019-03-10T08:02:51.145Z,35.00
2019-03-10T08:03:47.828Z,36.30
2019-03-10T08:04:47.836Z,33.20
2019-03-10T08:05:47.799Z,36.30
2019-03-10T08:06:47.900Z,33.40
2019-03-10T08:07:47.905Z,32.80
2019-03-10T08:08:47.794Z,31.30
2019-03-10T08:09:47.814Z,35.70
2019-03-10T08:10:48.040Z,30.50
2019-03-10T08:11:48.034Z,30.00
2019-03-10T08:54:25.252Z,27.80
2019-03-10T08:55:14.905Z,10.90
2019-03-10T08:56:15.750Z,14.20
2019-03-10T08:57:15.326Z,10.40
2019-03-10T08:58:14.747Z,13.40
